sensor_id;sensor_type;location;lat;lon;timestamp;P1;durP1;ratioP1;P2;durP2;ratioP2
39874;SDS011;25547;52.530;13.194;2023-03-01T00:02:16;25.70;;;12.18;;
39874;SDS011;25547;52.530;13.194;2023-03-01T00:04:42;22.95;;;10.57;;
39874;SDS011;25547;52.530;13.194;2023-03-01T00:07:12;27.52;;;12.38;;
39874;SDS011;25547;52.530;13.194;2023-03-01T00:09:42;27.73;;;12.40;;
39874;SDS011;25547;52.530;13.194;2023-03-01T00:12:10;31.92;;;13.05;;
39874;SDS011;25547;52.530;13.194;2023-03-01T00:14:36;28.35;;;13.15;;
39874;SDS011;25547;52.530;13.194;2023-03-01T00:17:02;33.00;;;13.30;;
39874;SDS011;25547;52.530;13.194;2023-03-01T00:19:30;25.83;;;12.93;;
39874;SDS011;25547;52.530;13.194;2023-03-01T00:21:57;36.13;;;15.30;;
39874;SDS011;25547;52.530;13.194;2023-03-01T00:24:25;43.00;;;18.55;;
39874;SDS011;25547;52.530;13.194;2023-03-01T00:26:55;36.13;;;16.75;;
39874;SDS011;25547;52.530;13.194;2023-03-01T00:29:24;38.33;;;16.60;;
39874;SDS011;25547;52.530;13.194;2023-03-01T00:31:50;32.33;;;15.50;;
39874;SDS011;25547;52.530;13.194;2023-03-01T00:34:15;36.20;;;14.70;;
39874;SDS011;25547;52.530;13.194;2023-03-01T00:36:41;35.15;;;16.65;;
39874;SDS011;25547;52.530;13.194;2023-03-01T00:39:10;28.40;;;14.30;;
39874;SDS011;25547;52.530;13.194;2023-03-01T00:41:38;36.70;;;15.57;;
39874;SDS011;25547;52.530;13.194;2023-03-01T00:44:07;32.85;;;14.85;;
39874;SDS011;25547;52.530;13.194;2023-03-01T00:46:33;29.25;;;14.18;;
39874;SDS011;25547;52.530;13.194;2023-03-01T00:48:58;32.92;;;13.48;;
39874;SDS011;25547;52.530;13.194;2023-03-01T00:51:27;28.45;;;13.30;;
39874;SDS011;25547;52.530;13.194;2023-03-01T00:53:54;27.98;;;12.75;;
39874;SDS011;25547;52.530;13.194;2023-03-01T00:56:21;25.45;;;12.80;;
39874;SDS011;25547;52.530;13.194;2023-03-01T00:58:50;28.58;;;14.52;;
39874;SDS011;25547;52.530;13.194;2023-03-01T01:01:17;27.10;;;13.00;;
39874;SDS011;25547;52.530;13.194;2023-03-01T01:03:51;31.88;;;13.57;;
39874;SDS011;25547;52.530;13.194;2023-03-01T01:06:25;26.08;;;13.65;;
39874;SDS011;25547;52.530;13.194;2023-03-01T01:08:57;35.47;;;13.52;;
39874;SDS011;25547;52.530;13.194;2023-03-01T01:11:26;27.70;;;13.10;;
39874;SDS011;25547;52.530;13.194;2023-03-01T01:13:54;32.17;;;12.60;;
39874;SDS011;25547;52.530;13.194;2023-03-01T01:16:21;30.17;;;13.30;;
39874;SDS011;25547;52.530;13.194;2023-03-01T01:18:50;25.42;;;11.80;;
39874;SDS011;25547;52.530;13.194;2023-03-01T01:21:17;22.95;;;10.40;;
39874;SDS011;25547;52.530;13.194;2023-03-01T01:23:44;25.02;;;11.57;;
39874;SDS011;25547;52.530;13.194;2023-03-01T01:26:19;28.75;;;12.85;;
39874;SDS011;25547;52.530;13.194;2023-03-01T01:28:50;29.08;;;12.85;;
39874;SDS011;25547;52.530;13.194;2023-03-01T01:31:16;28.65;;;10.95;;
39874;SDS011;25547;52.530;13.194;2023-03-01T01:33:45;23.20;;;10.93;;
39874;SDS011;25547;52.530;13.194;2023-03-01T01:36:13;24.90;;;10.93;;
39874;SDS011;25547;52.530;13.194;2023-03-01T01:38:39;26.45;;;11.65;;
39874;SDS011;25547;52.530;13.194;2023-03-01T01:41:05;24.27;;;11.27;;
39874;SDS011;25547;52.530;13.194;2023-03-01T01:48:50;27.00;;;10.85;;
39874;SDS011;25547;52.530;13.194;2023-03-01T01:51:22;25.23;;;10.80;;
39874;SDS011;25547;52.530;13.194;2023-03-01T01:53:52;24.77;;;10.82;;
39874;SDS011;25547;52.530;13.194;2023-03-01T01:56:23;24.75;;;10.73;;
39874;SDS011;25547;52.530;13.194;2023-03-01T01:58:54;23.25;;;9.45;;
39874;SDS011;25547;52.530;13.194;2023-03-01T02:01:20;27.45;;;12.48;;
39874;SDS011;25547;52.530;13.194;2023-03-01T02:03:46;23.25;;;10.43;;
39874;SDS011;25547;52.530;13.194;2023-03-01T02:06:17;21.90;;;11.20;;
39874;SDS011;25547;52.530;13.194;2023-03-01T02:08:44;25.98;;;10.55;;
39874;SDS011;25547;52.530;13.194;2023-03-01T02:11:12;23.13;;;10.05;;
39874;SDS011;25547;52.530;13.194;2023-03-01T02:13:39;24.15;;;11.20;;
39874;SDS011;25547;52.530;13.194;2023-03-01T02:16:09;21.88;;;10.13;;
39874;SDS011;25547;52.530;13.194;2023-03-01T02:18:37;25.70;;;12.15;;
39874;SDS011;25547;52.530;13.194;2023-03-01T02:23:50;22.02;;;10.73;;
39874;SDS011;25547;52.530;13.194;2023-03-01T02:29:02;20.98;;;10.32;;
39874;SDS011;25547;52.530;13.194;2023-03-01T02:31:28;21.45;;;10.05;;
39874;SDS011;25547;52.530;13.194;2023-03-01T02:34:17;21.95;;;9.90;;
39874;SDS011;25547;52.530;13.194;2023-03-01T02:39:18;20.48;;;11.27;;
39874;SDS011;25547;52.530;13.194;2023-03-01T02:41:51;23.40;;;10.90;;
39874;SDS011;25547;52.530;13.194;2023-03-01T02:44:18;21.95;;;9.48;;
39874;SDS011;25547;52.530;13.194;2023-03-01T02:46:48;19.95;;;9.75;;
39874;SDS011;25547;52.530;13.194;2023-03-01T02:49:18;19.05;;;9.70;;
39874;SDS011;25547;52.530;13.194;2023-03-01T02:52:05;20.30;;;10.80;;
39874;SDS011;25547;52.530;13.194;2023-03-01T02:57:23;20.98;;;8.95;;
39874;SDS011;25547;52.530;13.194;2023-03-01T02:59:52;23.77;;;10.27;;
39874;SDS011;25547;52.530;13.194;2023-03-01T03:02:22;19.38;;;8.75;;
39874;SDS011;25547;52.530;13.194;2023-03-01T03:05:12;17.52;;;9.00;;
39874;SDS011;25547;52.530;13.194;2023-03-01T03:07:45;22.08;;;9.15;;
39874;SDS011;25547;52.530;13.194;2023-03-01T03:10:13;21.30;;;8.70;;
39874;SDS011;25547;52.530;13.194;2023-03-01T03:12:50;25.30;;;10.52;;
39874;SDS011;25547;52.530;13.194;2023-03-01T03:15:19;22.65;;;10.00;;
39874;SDS011;25547;52.530;13.194;2023-03-01T03:17:46;25.27;;;9.68;;
39874;SDS011;25547;52.530;13.194;2023-03-01T03:20:12;21.63;;;10.13;;
39874;SDS011;25547;52.530;13.194;2023-03-01T03:22:46;22.52;;;9.73;;
39874;SDS011;25547;52.530;13.194;2023-03-01T03:25:16;24.23;;;11.00;;
39874;SDS011;25547;52.530;13.194;2023-03-01T03:27:43;21.25;;;9.50;;
39874;SDS011;25547;52.530;13.194;2023-03-01T03:30:14;23.70;;;11.00;;
39874;SDS011;25547;52.530;13.194;2023-03-01T03:32:43;23.33;;;9.75;;
39874;SDS011;25547;52.530;13.194;2023-03-01T03:35:18;23.95;;;9.68;;
39874;SDS011;25547;52.530;13.194;2023-03-01T03:37:50;19.75;;;8.23;;
39874;SDS011;25547;52.530;13.194;2023-03-01T03:40:30;18.75;;;8.77;;
39874;SDS011;25547;52.530;13.194;2023-03-01T03:43:16;17.73;;;8.98;;
39874;SDS011;25547;52.530;13.194;2023-03-01T03:45:47;27.17;;;9.93;;
39874;SDS011;25547;52.530;13.194;2023-03-01T03:48:14;16.77;;;8.63;;
39874;SDS011;25547;52.530;13.194;2023-03-01T03:50:41;18.42;;;8.20;;
39874;SDS011;25547;52.530;13.194;2023-03-01T03:53:12;23.02;;;10.07;;
39874;SDS011;25547;52.530;13.194;2023-03-01T03:55:37;20.50;;;9.10;;
39874;SDS011;25547;52.530;13.194;2023-03-01T03:58:08;20.27;;;9.18;;
39874;SDS011;25547;52.530;13.194;2023-03-01T04:00:35;23.08;;;9.25;;
39874;SDS011;25547;52.530;13.194;2023-03-01T04:05:31;17.02;;;7.25;;
39874;SDS011;25547;52.530;13.194;2023-03-01T04:07:58;18.73;;;9.10;;
39874;SDS011;25547;52.530;13.194;2023-03-01T04:10:38;24.05;;;8.27;;
39874;SDS011;25547;52.530;13.194;2023-03-01T04:13:09;20.30;;;10.75;;
39874;SDS011;25547;52.530;13.194;2023-03-01T04:15:42;16.30;;;8.60;;
39874;SDS011;25547;52.530;13.194;2023-03-01T04:18:08;23.55;;;9.27;;
39874;SDS011;25547;52.530;13.194;2023-03-01T04:20:41;15.75;;;7.35;;
39874;SDS011;25547;52.530;13.194;2023-03-01T04:23:11;19.05;;;9.02;;
39874;SDS011;25547;52.530;13.194;2023-03-01T04:25:54;17.58;;;8.13;;
39874;SDS011;25547;52.530;13.194;2023-03-01T04:28:26;17.42;;;8.18;;
39874;SDS011;25547;52.530;13.194;2023-03-01T04:30:54;19.85;;;9.15;;
39874;SDS011;25547;52.530;13.194;2023-03-01T04:33:21;21.83;;;9.65;;
39874;SDS011;25547;52.530;13.194;2023-03-01T04:35:49;20.80;;;8.55;;
39874;SDS011;25547;52.530;13.194;2023-03-01T04:38:18;19.25;;;10.68;;
39874;SDS011;25547;52.530;13.194;2023-03-01T04:40:46;17.98;;;9.23;;
39874;SDS011;25547;52.530;13.194;2023-03-01T04:43:12;24.30;;;10.32;;
39874;SDS011;25547;52.530;13.194;2023-03-01T04:45:39;18.25;;;8.70;;
39874;SDS011;25547;52.530;13.194;2023-03-01T04:48:05;24.15;;;10.38;;
39874;SDS011;25547;52.530;13.194;2023-03-01T04:50:31;19.70;;;8.93;;
39874;SDS011;25547;52.530;13.194;2023-03-01T04:52:56;18.92;;;9.07;;
39874;SDS011;25547;52.530;13.194;2023-03-01T04:55:24;20.65;;;8.07;;
39874;SDS011;25547;52.530;13.194;2023-03-01T04:57:51;19.17;;;7.93;;
39874;SDS011;25547;52.530;13.194;2023-03-01T05:00:17;18.73;;;8.18;;
39874;SDS011;25547;52.530;13.194;2023-03-01T05:02:56;18.20;;;8.32;;
39874;SDS011;25547;52.530;13.194;2023-03-01T05:07:55;20.40;;;9.05;;
39874;SDS011;25547;52.530;13.194;2023-03-01T05:10:23;18.27;;;8.50;;
39874;SDS011;25547;52.530;13.194;2023-03-01T05:12:49;17.23;;;8.23;;
39874;SDS011;25547;52.530;13.194;2023-03-01T05:15:17;18.33;;;7.88;;
39874;SDS011;25547;52.530;13.194;2023-03-01T05:17:43;29.67;;;11.80;;
39874;SDS011;25547;52.530;13.194;2023-03-01T05:20:09;24.27;;;9.70;;
39874;SDS011;25547;52.530;13.194;2023-03-01T05:22:38;17.65;;;8.45;;
39874;SDS011;25547;52.530;13.194;2023-03-01T05:25:05;14.07;;;6.15;;
39874;SDS011;25547;52.530;13.194;2023-03-01T05:27:32;18.08;;;7.70;;
39874;SDS011;25547;52.530;13.194;2023-03-01T05:29:58;22.65;;;7.60;;
39874;SDS011;25547;52.530;13.194;2023-03-01T05:32:24;16.13;;;7.63;;
39874;SDS011;25547;52.530;13.194;2023-03-01T05:34:52;17.63;;;7.25;;
39874;SDS011;25547;52.530;13.194;2023-03-01T05:37:20;16.95;;;9.20;;
39874;SDS011;25547;52.530;13.194;2023-03-01T05:39:48;17.25;;;8.85;;
39874;SDS011;25547;52.530;13.194;2023-03-01T05:42:15;19.25;;;9.00;;
39874;SDS011;25547;52.530;13.194;2023-03-01T05:44:43;23.65;;;11.23;;
39874;SDS011;25547;52.530;13.194;2023-03-01T05:47:11;24.42;;;10.63;;
39874;SDS011;25547;52.530;13.194;2023-03-01T05:49:37;28.48;;;10.35;;
39874;SDS011;25547;52.530;13.194;2023-03-01T05:52:05;25.85;;;9.35;;
39874;SDS011;25547;52.530;13.194;2023-03-01T05:54:31;20.80;;;9.45;;
39874;SDS011;25547;52.530;13.194;2023-03-01T05:56:56;22.15;;;8.73;;
39874;SDS011;25547;52.530;13.194;2023-03-01T05:59:22;23.58;;;9.45;;
39874;SDS011;25547;52.530;13.194;2023-03-01T06:01:48;28.60;;;10.40;;
39874;SDS011;25547;52.530;13.194;2023-03-01T06:04:16;19.50;;;8.70;;
39874;SDS011;25547;52.530;13.194;2023-03-01T06:06:44;24.27;;;11.90;;
39874;SDS011;25547;52.530;13.194;2023-03-01T06:09:09;21.67;;;8.45;;
39874;SDS011;25547;52.530;13.194;2023-03-01T06:11:35;20.67;;;9.43;;
39874;SDS011;25547;52.530;13.194;2023-03-01T06:14:04;25.25;;;8.82;;
39874;SDS011;25547;52.530;13.194;2023-03-01T06:16:33;18.02;;;9.40;;
39874;SDS011;25547;52.530;13.194;2023-03-01T06:18:59;19.88;;;9.60;;
39874;SDS011;25547;52.530;13.194;2023-03-01T06:21:24;25.92;;;10.13;;
39874;SDS011;25547;52.530;13.194;2023-03-01T06:23:52;24.42;;;9.35;;
39874;SDS011;25547;52.530;13.194;2023-03-01T06:26:18;20.25;;;8.95;;
39874;SDS011;25547;52.530;13.194;2023-03-01T06:28:45;22.02;;;9.65;;
39874;SDS011;25547;52.530;13.194;2023-03-01T06:31:11;16.83;;;9.02;;
39874;SDS011;25547;52.530;13.194;2023-03-01T06:33:37;16.98;;;7.85;;
39874;SDS011;25547;52.530;13.194;2023-03-01T06:36:02;16.42;;;7.28;;
39874;SDS011;25547;52.530;13.194;2023-03-01T06:38:31;21.70;;;10.32;;
39874;SDS011;25547;52.530;13.194;2023-03-01T06:40:56;21.45;;;10.02;;
39874;SDS011;25547;52.530;13.194;2023-03-01T06:43:22;20.23;;;9.13;;
39874;SDS011;25547;52.530;13.194;2023-03-01T06:45:53;23.38;;;9.13;;
39874;SDS011;25547;52.530;13.194;2023-03-01T06:48:18;20.60;;;9.77;;
39874;SDS011;25547;52.530;13.194;2023-03-01T06:50:44;22.17;;;11.10;;
39874;SDS011;25547;52.530;13.194;2023-03-01T06:53:09;20.80;;;9.55;;
39874;SDS011;25547;52.530;13.194;2023-03-01T06:55:37;20.92;;;9.50;;
39874;SDS011;25547;52.530;13.194;2023-03-01T06:58:03;22.42;;;10.50;;
39874;SDS011;25547;52.530;13.194;2023-03-01T07:00:29;24.27;;;10.27;;
39874;SDS011;25547;52.530;13.194;2023-03-01T07:02:56;28.15;;;10.90;;
39874;SDS011;25547;52.530;13.194;2023-03-01T07:05:24;24.00;;;11.27;;
39874;SDS011;25547;52.530;13.194;2023-03-01T07:07:49;22.67;;;11.45;;
39874;SDS011;25547;52.530;13.194;2023-03-01T07:10:15;25.63;;;11.82;;
39874;SDS011;25547;52.530;13.194;2023-03-01T07:12:41;19.00;;;9.77;;
39874;SDS011;25547;52.530;13.194;2023-03-01T07:15:08;23.48;;;10.77;;
39874;SDS011;25547;52.530;13.194;2023-03-01T07:17:35;21.52;;;10.23;;
39874;SDS011;25547;52.530;13.194;2023-03-01T07:20:03;23.52;;;9.90;;
39874;SDS011;25547;52.530;13.194;2023-03-01T07:22:31;26.58;;;11.98;;
39874;SDS011;25547;52.530;13.194;2023-03-01T07:24:57;23.05;;;11.30;;
39874;SDS011;25547;52.530;13.194;2023-03-01T07:27:23;25.20;;;11.73;;
39874;SDS011;25547;52.530;13.194;2023-03-01T07:29:51;17.83;;;10.23;;
39874;SDS011;25547;52.530;13.194;2023-03-01T07:32:19;22.83;;;10.77;;
39874;SDS011;25547;52.530;13.194;2023-03-01T07:34:45;19.33;;;9.50;;
39874;SDS011;25547;52.530;13.194;2023-03-01T07:37:13;23.55;;;10.23;;
39874;SDS011;25547;52.530;13.194;2023-03-01T07:39:40;24.35;;;10.70;;
39874;SDS011;25547;52.530;13.194;2023-03-01T07:42:06;25.40;;;10.27;;
39874;SDS011;25547;52.530;13.194;2023-03-01T07:44:34;20.70;;;10.07;;
39874;SDS011;25547;52.530;13.194;2023-03-01T07:47:00;21.45;;;10.07;;
39874;SDS011;25547;52.530;13.194;2023-03-01T07:49:28;19.00;;;9.90;;
39874;SDS011;25547;52.530;13.194;2023-03-01T07:51:54;19.30;;;10.43;;
39874;SDS011;25547;52.530;13.194;2023-03-01T07:54:20;16.88;;;9.38;;
39874;SDS011;25547;52.530;13.194;2023-03-01T07:56:48;21.35;;;9.05;;
39874;SDS011;25547;52.530;13.194;2023-03-01T07:59:14;20.42;;;9.65;;
39874;SDS011;25547;52.530;13.194;2023-03-01T08:01:40;21.13;;;9.85;;
39874;SDS011;25547;52.530;13.194;2023-03-01T08:04:07;16.10;;;9.65;;
39874;SDS011;25547;52.530;13.194;2023-03-01T08:06:34;16.25;;;9.85;;
39874;SDS011;25547;52.530;13.194;2023-03-01T08:09:01;16.85;;;9.30;;
39874;SDS011;25547;52.530;13.194;2023-03-01T08:11:27;14.35;;;8.30;;
39874;SDS011;25547;52.530;13.194;2023-03-01T08:13:53;14.68;;;8.55;;
39874;SDS011;25547;52.530;13.194;2023-03-01T08:16:22;16.92;;;8.38;;
39874;SDS011;25547;52.530;13.194;2023-03-01T08:18:48;15.15;;;8.98;;
39874;SDS011;25547;52.530;13.194;2023-03-01T08:21:15;15.05;;;9.75;;
39874;SDS011;25547;52.530;13.194;2023-03-01T08:23:42;14.35;;;8.10;;
39874;SDS011;25547;52.530;13.194;2023-03-01T08:26:13;11.70;;;8.00;;
39874;SDS011;25547;52.530;13.194;2023-03-01T08:28:40;9.93;;;7.43;;
39874;SDS011;25547;52.530;13.194;2023-03-01T08:31:20;12.48;;;6.15;;
39874;SDS011;25547;52.530;13.194;2023-03-01T08:33:53;9.27;;;6.45;;
39874;SDS011;25547;52.530;13.194;2023-03-01T08:36:21;9.02;;;6.50;;
39874;SDS011;25547;52.530;13.194;2023-03-01T08:38:53;10.60;;;5.93;;
39874;SDS011;25547;52.530;13.194;2023-03-01T08:41:19;10.63;;;5.38;;
39874;SDS011;25547;52.530;13.194;2023-03-01T08:43:45;8.60;;;5.40;;
39874;SDS011;25547;52.530;13.194;2023-03-01T08:46:11;7.07;;;4.53;;
39874;SDS011;25547;52.530;13.194;2023-03-01T08:48:40;8.48;;;5.03;;
39874;SDS011;25547;52.530;13.194;2023-03-01T08:51:15;6.28;;;3.88;;
39874;SDS011;25547;52.530;13.194;2023-03-01T08:53:42;5.55;;;4.25;;
39874;SDS011;25547;52.530;13.194;2023-03-01T08:56:08;8.80;;;5.18;;
39874;SDS011;25547;52.530;13.194;2023-03-01T08:58:37;8.20;;;4.78;;
39874;SDS011;25547;52.530;13.194;2023-03-01T09:01:08;9.07;;;5.18;;
39874;SDS011;25547;52.530;13.194;2023-03-01T09:03:39;9.93;;;5.15;;
39874;SDS011;25547;52.530;13.194;2023-03-01T09:06:09;6.88;;;4.55;;
39874;SDS011;25547;52.530;13.194;2023-03-01T09:08:37;9.27;;;4.95;;
39874;SDS011;25547;52.530;13.194;2023-03-01T09:11:11;7.57;;;3.95;;
39874;SDS011;25547;52.530;13.194;2023-03-01T09:13:42;10.98;;;5.60;;
39874;SDS011;25547;52.530;13.194;2023-03-01T09:16:13;8.07;;;3.72;;
39874;SDS011;25547;52.530;13.194;2023-03-01T09:21:12;5.80;;;3.42;;
39874;SDS011;25547;52.530;13.194;2023-03-01T09:23:41;5.97;;;2.50;;
39874;SDS011;25547;52.530;13.194;2023-03-01T09:26:12;10.45;;;4.47;;
39874;SDS011;25547;52.530;13.194;2023-03-01T09:28:48;8.68;;;3.53;;
39874;SDS011;25547;52.530;13.194;2023-03-01T09:31:19;7.35;;;2.88;;
39874;SDS011;25547;52.530;13.194;2023-03-01T09:33:46;5.60;;;2.20;;
39874;SDS011;25547;52.530;13.194;2023-03-01T09:36:14;9.75;;;2.80;;
39874;SDS011;25547;52.530;13.194;2023-03-01T09:38:41;7.00;;;2.13;;
39874;SDS011;25547;52.530;13.194;2023-03-01T09:41:11;5.43;;;2.50;;
39874;SDS011;25547;52.530;13.194;2023-03-01T09:44:07;9.82;;;3.42;;
39874;SDS011;25547;52.530;13.194;2023-03-01T09:46:48;5.90;;;2.58;;
39874;SDS011;25547;52.530;13.194;2023-03-01T09:49:15;9.20;;;2.72;;
39874;SDS011;25547;52.530;13.194;2023-03-01T09:51:47;7.38;;;2.55;;
39874;SDS011;25547;52.530;13.194;2023-03-01T09:54:24;5.28;;;2.30;;
39874;SDS011;25547;52.530;13.194;2023-03-01T09:59:33;6.53;;;2.28;;
39874;SDS011;25547;52.530;13.194;2023-03-01T10:02:23;6.97;;;2.80;;
39874;SDS011;25547;52.530;13.194;2023-03-01T10:05:18;5.70;;;2.28;;
39874;SDS011;25547;52.530;13.194;2023-03-01T10:10:28;5.30;;;1.17;;
39874;SDS011;25547;52.530;13.194;2023-03-01T10:12:58;3.65;;;1.25;;
39874;SDS011;25547;52.530;13.194;2023-03-01T10:15:36;8.40;;;1.88;;
39874;SDS011;25547;52.530;13.194;2023-03-01T10:18:26;5.30;;;1.00;;
39874;SDS011;25547;52.530;13.194;2023-03-01T10:20:58;3.60;;;0.50;;
39874;SDS011;25547;52.530;13.194;2023-03-01T10:23:32;3.28;;;0.55;;
39874;SDS011;25547;52.530;13.194;2023-03-01T10:26:12;3.10;;;0.93;;
39874;SDS011;25547;52.530;13.194;2023-03-01T10:29:02;6.78;;;0.77;;
39874;SDS011;25547;52.530;13.194;2023-03-01T10:31:33;5.38;;;0.60;;
39874;SDS011;25547;52.530;13.194;2023-03-01T10:34:08;1.80;;;0.30;;
39874;SDS011;25547;52.530;13.194;2023-03-01T10:36:36;2.72;;;0.30;;
39874;SDS011;25547;52.530;13.194;2023-03-01T10:39:10;3.83;;;0.35;;
39874;SDS011;25547;52.530;13.194;2023-03-01T10:41:52;3.53;;;0.30;;
39874;SDS011;25547;52.530;13.194;2023-03-01T10:44:42;3.47;;;0.70;;
39874;SDS011;25547;52.530;13.194;2023-03-01T10:47:13;1.95;;;0.30;;
39874;SDS011;25547;52.530;13.194;2023-03-01T10:52:23;4.18;;;0.25;;
39874;SDS011;25547;52.530;13.194;2023-03-01T10:54:54;3.88;;;0.40;;
39874;SDS011;25547;52.530;13.194;2023-03-01T10:57:35;4.72;;;0.30;;
39874;SDS011;25547;52.530;13.194;2023-03-01T11:03:30;4.80;;;0.73;;
39874;SDS011;25547;52.530;13.194;2023-03-01T11:05:44;3.25;;;0.40;;
39874;SDS011;25547;52.530;13.194;2023-03-01T11:08:41;3.03;;;0.50;;
39874;SDS011;25547;52.530;13.194;2023-03-01T11:11:13;9.32;;;0.50;;
39874;SDS011;25547;52.530;13.194;2023-03-01T11:16:47;2.05;;;0.30;;
39874;SDS011;25547;52.530;13.194;2023-03-01T11:19:25;1.45;;;0.30;;
39874;SDS011;25547;52.530;13.194;2023-03-01T11:21:53;3.08;;;0.20;;
39874;SDS011;25547;52.530;13.194;2023-03-01T11:24:27;1.40;;;0.20;;
39874;SDS011;25547;52.530;13.194;2023-03-01T11:27:03;5.75;;;0.40;;
39874;SDS011;25547;52.530;13.194;2023-03-01T11:29:40;3.08;;;0.40;;
39874;SDS011;25547;52.530;13.194;2023-03-01T11:32:16;6.57;;;0.70;;
39874;SDS011;25547;52.530;13.194;2023-03-01T11:40:21;3.03;;;0.50;;
39874;SDS011;25547;52.530;13.194;2023-03-01T11:43:04;1.27;;;0.15;;
39874;SDS011;25547;52.530;13.194;2023-03-01T11:50:50;2.30;;;0.28;;
39874;SDS011;25547;52.530;13.194;2023-03-01T12:01:57;2.90;;;0.38;;
39874;SDS011;25547;52.530;13.194;2023-03-01T12:04:32;4.00;;;0.20;;
39874;SDS011;25547;52.530;13.194;2023-03-01T12:12:57;2.08;;;0.32;;
39874;SDS011;25547;52.530;13.194;2023-03-01T12:24:33;3.45;;;0.20;;
39874;SDS011;25547;52.530;13.194;2023-03-01T12:27:00;6.32;;;0.15;;
39874;SDS011;25547;52.530;13.194;2023-03-01T12:33:42;1.50;;;0.47;;
39874;SDS011;25547;52.530;13.194;2023-03-01T12:38:33;1.02;;;0.20;;
39874;SDS011;25547;52.530;13.194;2023-03-01T12:41:11;7.45;;;0.85;;
39874;SDS011;25547;52.530;13.194;2023-03-01T12:43:54;1.15;;;0.15;;
39874;SDS011;25547;52.530;13.194;2023-03-01T12:50:12;4.03;;;0.10;;
39874;SDS011;25547;52.530;13.194;2023-03-01T12:52:51;4.95;;;0.95;;
39874;SDS011;25547;52.530;13.194;2023-03-01T13:00:50;5.35;;;0.10;;
39874;SDS011;25547;52.530;13.194;2023-03-01T13:11:45;4.72;;;1.10;;
39874;SDS011;25547;52.530;13.194;2023-03-01T13:16:51;3.03;;;0.20;;
39874;SDS011;25547;52.530;13.194;2023-03-01T13:19:24;5.80;;;0.22;;
39874;SDS011;25547;52.530;13.194;2023-03-01T13:21:52;1.98;;;0.30;;
39874;SDS011;25547;52.530;13.194;2023-03-01T13:29:49;3.78;;;0.35;;
39874;SDS011;25547;52.530;13.194;2023-03-01T13:34:50;5.07;;;0.50;;
39874;SDS011;25547;52.530;13.194;2023-03-01T13:37:19;3.13;;;0.28;;
39874;SDS011;25547;52.530;13.194;2023-03-01T13:45:04;2.33;;;0.20;;
39874;SDS011;25547;52.530;13.194;2023-03-01T13:47:40;4.05;;;0.40;;
39874;SDS011;25547;52.530;13.194;2023-03-01T13:50:15;2.42;;;0.17;;
39874;SDS011;25547;52.530;13.194;2023-03-01T13:52:54;4.50;;;0.30;;
39874;SDS011;25547;52.530;13.194;2023-03-01T13:55:37;5.05;;;0.40;;
39874;SDS011;25547;52.530;13.194;2023-03-01T13:58:28;3.47;;;0.20;;
39874;SDS011;25547;52.530;13.194;2023-03-01T14:01:02;2.75;;;0.30;;
39874;SDS011;25547;52.530;13.194;2023-03-01T14:03:30;3.22;;;0.30;;
39874;SDS011;25547;52.530;13.194;2023-03-01T14:08:27;4.68;;;0.25;;
39874;SDS011;25547;52.530;13.194;2023-03-01T14:21:12;2.38;;;0.55;;
39874;SDS011;25547;52.530;13.194;2023-03-01T14:23:40;5.18;;;0.30;;
39874;SDS011;25547;52.530;13.194;2023-03-01T14:26:09;2.38;;;0.40;;
39874;SDS011;25547;52.530;13.194;2023-03-01T14:28:37;4.78;;;0.10;;
39874;SDS011;25547;52.530;13.194;2023-03-01T14:31:25;3.22;;;0.65;;
39874;SDS011;25547;52.530;13.194;2023-03-01T14:34:16;2.20;;;0.10;;
39874;SDS011;25547;52.530;13.194;2023-03-01T14:36:45;2.25;;;0.25;;
39874;SDS011;25547;52.530;13.194;2023-03-01T14:39:23;1.77;;;0.20;;
39874;SDS011;25547;52.530;13.194;2023-03-01T14:41:51;2.22;;;0.20;;
39874;SDS011;25547;52.530;13.194;2023-03-01T14:44:21;2.03;;;0.10;;
39874;SDS011;25547;52.530;13.194;2023-03-01T14:46:51;1.80;;;0.20;;
39874;SDS011;25547;52.530;13.194;2023-03-01T14:49:23;3.03;;;0.32;;
39874;SDS011;25547;52.530;13.194;2023-03-01T14:51:53;3.05;;;0.20;;
39874;SDS011;25547;52.530;13.194;2023-03-01T14:54:39;4.38;;;0.30;;
39874;SDS011;25547;52.530;13.194;2023-03-01T14:57:18;3.47;;;0.28;;
39874;SDS011;25547;52.530;13.194;2023-03-01T14:59:50;1.30;;;0.17;;
39874;SDS011;25547;52.530;13.194;2023-03-01T15:02:19;2.95;;;0.50;;
39874;SDS011;25547;52.530;13.194;2023-03-01T15:04:52;2.92;;;0.60;;
39874;SDS011;25547;52.530;13.194;2023-03-01T15:07:25;1.75;;;0.15;;
39874;SDS011;25547;52.530;13.194;2023-03-01T15:10:00;3.72;;;1.00;;
39874;SDS011;25547;52.530;13.194;2023-03-01T15:14:57;1.60;;;0.22;;
39874;SDS011;25547;52.530;13.194;2023-03-01T15:17:30;4.47;;;0.30;;
39874;SDS011;25547;52.530;13.194;2023-03-01T15:19:57;1.40;;;0.20;;
39874;SDS011;25547;52.530;13.194;2023-03-01T15:22:24;8.73;;;0.47;;
39874;SDS011;25547;52.530;13.194;2023-03-01T15:24:51;3.45;;;0.35;;
39874;SDS011;25547;52.530;13.194;2023-03-01T15:27:21;1.23;;;0.20;;
39874;SDS011;25547;52.530;13.194;2023-03-01T15:29:50;1.30;;;0.20;;
39874;SDS011;25547;52.530;13.194;2023-03-01T15:32:33;3.78;;;0.20;;
39874;SDS011;25547;52.530;13.194;2023-03-01T15:38:00;2.38;;;0.40;;
39874;SDS011;25547;52.530;13.194;2023-03-01T15:40:27;2.25;;;0.30;;
39874;SDS011;25547;52.530;13.194;2023-03-01T15:42:57;1.65;;;0.20;;
39874;SDS011;25547;52.530;13.194;2023-03-01T15:45:27;2.58;;;0.20;;
39874;SDS011;25547;52.530;13.194;2023-03-01T15:48:02;1.65;;;0.20;;
39874;SDS011;25547;52.530;13.194;2023-03-01T15:50:31;2.65;;;0.20;;
39874;SDS011;25547;52.530;13.194;2023-03-01T15:52:59;4.03;;;0.32;;
39874;SDS011;25547;52.530;13.194;2023-03-01T15:55:29;1.23;;;0.20;;
39874;SDS011;25547;52.530;13.194;2023-03-01T15:58:03;3.08;;;0.40;;
39874;SDS011;25547;52.530;13.194;2023-03-01T16:00:34;1.90;;;0.20;;
39874;SDS011;25547;52.530;13.194;2023-03-01T16:03:00;2.72;;;0.20;;
39874;SDS011;25547;52.530;13.194;2023-03-01T16:05:30;3.50;;;0.43;;
39874;SDS011;25547;52.530;13.194;2023-03-01T16:08:00;3.50;;;0.10;;
39874;SDS011;25547;52.530;13.194;2023-03-01T16:10:30;1.85;;;0.15;;
39874;SDS011;25547;52.530;13.194;2023-03-01T16:12:59;1.88;;;0.10;;
39874;SDS011;25547;52.530;13.194;2023-03-01T16:15:30;2.50;;;0.20;;
39874;SDS011;25547;52.530;13.194;2023-03-01T16:17:59;2.80;;;0.70;;
39874;SDS011;25547;52.530;13.194;2023-03-01T16:20:28;1.50;;;0.10;;
39874;SDS011;25547;52.530;13.194;2023-03-01T16:22:55;2.00;;;0.10;;
39874;SDS011;25547;52.530;13.194;2023-03-01T16:25:23;5.68;;;0.20;;
39874;SDS011;25547;52.530;13.194;2023-03-01T16:27:49;2.92;;;0.20;;
39874;SDS011;25547;52.530;13.194;2023-03-01T16:30:17;1.98;;;0.40;;
39874;SDS011;25547;52.530;13.194;2023-03-01T16:32:44;1.40;;;0.10;;
39874;SDS011;25547;52.530;13.194;2023-03-01T16:35:12;2.42;;;0.20;;
39874;SDS011;25547;52.530;13.194;2023-03-01T16:37:39;3.25;;;0.45;;
39874;SDS011;25547;52.530;13.194;2023-03-01T16:40:06;2.45;;;0.20;;
39874;SDS011;25547;52.530;13.194;2023-03-01T16:42:40;1.38;;;0.20;;
39874;SDS011;25547;52.530;13.194;2023-03-01T16:45:09;4.00;;;0.30;;
39874;SDS011;25547;52.530;13.194;2023-03-01T16:47:35;5.05;;;0.20;;
39874;SDS011;25547;52.530;13.194;2023-03-01T16:50:01;4.90;;;0.30;;
39874;SDS011;25547;52.530;13.194;2023-03-01T16:52:27;3.85;;;0.32;;